Time;durP1;ratioP1;P1;durP2;ratioP2;P2;SDS_P1;SDS_P2;PMS_P1;PMS_P2;Temp;Humidity;BMP_temperature;BMP_pressure;BME280_temperature;BME280_humidity;BME280_pressure;Samples;Min_cycle;Max_cycle;Signal;HPM_P1;HPM_P2
2022/03/08 00:01:00;;;;;;;2.97;1.30;;;;;;;;;;5094828;28;20110;-65
2022/03/08 00:03:26;;;;;;;1.90;1.40;;;;;;;;;;5076825;28;20252;-64
2022/03/08 00:05:52;;;;;;;5.25;1.80;;;;;;;;;;5094999;28;20020;-65
2022/03/08 00:08:18;;;;;;;6.57;1.65;;;;;;;;;;5094606;28;20039;-64
2022/03/08 00:10:44;;;;;;;1.30;1.08;;;;;;;;;;5094768;28;20028;-65
2022/03/08 00:13:10;;;;;;;1.88;1.40;;;;;;;;;;5076569;28;20016;-65
2022/03/08 00:15:36;;;;;;;9.43;1.52;;;;;;;;;;5094239;28;20044;-65
2022/03/08 00:18:02;;;;;;;3.50;1.80;;;;;;;;;;5094975;28;20032;-65
2022/03/08 00:20:30;;;;;;;3.63;1.40;;;;;;;;;;5094718;28;20032;-65
2022/03/08 00:22:56;;;;;;;2.80;1.42;;;;;;;;;;5094489;28;20150;-65
2022/03/08 00:25:22;;;;;;;3.17;1.50;;;;;;;;;;5076809;28;20169;-65
2022/03/08 00:27:48;;;;;;;8.35;1.73;;;;;;;;;;5094389;28;20055;-65
2022/03/08 00:30:19;;;;;;;5.35;1.58;;;;;;;;;;5094355;28;20024;-66
2022/03/08 00:32:45;;;;;;;1.83;1.50;;;;;;;;;;5093715;28;20169;-66
2022/03/08 00:35:11;;;;;;;1.70;1.60;;;;;;;;;;5094252;28;20023;-65
2022/03/08 00:37:38;;;;;;;2.17;1.33;;;;;;;;;;5076162;28;20032;-66
2022/03/08 00:40:05;;;;;;;6.32;1.70;;;;;;;;;;5094283;28;20103;-65
2022/03/08 00:42:31;;;;;;;7.53;2.25;;;;;;;;;;5094112;28;20024;-66
2022/03/08 00:44:57;;;;;;;5.65;2.13;;;;;;;;;;5094454;28;20028;-63
2022/03/08 00:47:23;;;;;;;9.43;2.42;;;;;;;;;;5075644;28;20505;-64
2022/03/08 00:49:49;;;;;;;10.75;2.22;;;;;;;;;;5094228;28;20505;-66
2022/03/08 00:52:15;;;;;;;15.38;2.28;;;;;;;;;;5094188;28;20035;-65
2022/03/08 00:54:41;;;;;;;17.25;2.38;;;;;;;;;;5094192;28;20027;-66
2022/03/08 00:57:07;;;;;;;7.45;2.55;;;;;;;;;;5090308;28;20044;-65
2022/03/08 00:59:33;;;;;;;9.25;2.17;;;;;;;;;;5094058;28;20121;-65
2022/03/08 01:01:59;;;;;;;5.90;2.10;;;;;;;;;;5093830;28;20440;-66
2022/03/08 01:04:25;;;;;;;10.98;2.50;;;;;;;;;;5093079;28;20383;-64
2022/03/08 01:06:52;;;;;;;9.32;2.20;;;;;;;;;;5093463;28;20479;-65
2022/03/08 01:09:18;;;;;;;5.97;2.00;;;;;;;;;;5093355;28;20031;-65
2022/03/08 01:11:44;;;;;;;9.57;2.22;;;;;;;;;;5093166;28;20024;-65
2022/03/08 01:14:10;;;;;;;9.57;2.33;;;;;;;;;;5093173;28;20020;-65
2022/03/08 01:16:36;;;;;;;11.40;2.25;;;;;;;;;;5075315;28;20040;-65
2022/03/08 01:19:03;;;;;;;2.75;1.85;;;;;;;;;;5075179;28;20016;-66
2022/03/08 01:21:29;;;;;;;4.78;1.70;;;;;;;;;;5092477;28;20038;-66
2022/03/08 01:23:55;;;;;;;6.38;1.60;;;;;;;;;;5093134;28;20024;-66
2022/03/08 01:26:21;;;;;;;8.55;1.95;;;;;;;;;;5093505;28;20430;-66
2022/03/08 01:28:47;;;;;;;10.57;1.92;;;;;;;;;;5093709;28;20032;-66
2022/03/08 01:31:13;;;;;;;8.40;1.90;;;;;;;;;;5093424;28;20074;-66
2022/03/08 01:33:39;;;;;;;4.28;2.05;;;;;;;;;;5074990;28;20439;-66
2022/03/08 01:36:06;;;;;;;2.13;1.40;;;;;;;;;;5093026;28;20038;-66
2022/03/08 01:38:32;;;;;;;8.35;1.88;;;;;;;;;;5091980;28;20036;-66
2022/03/08 01:40:58;;;;;;;12.00;2.00;;;;;;;;;;5093069;28;20128;-66
2022/03/08 01:43:24;;;;;;;7.38;1.90;;;;;;;;;;5093328;28;20103;-66
2022/03/08 01:45:50;;;;;;;5.88;1.85;;;;;;;;;;5092778;28;20051;-66
2022/03/08 01:48:16;;;;;;;6.40;1.90;;;;;;;;;;5092795;28;20073;-66
2022/03/08 01:50:42;;;;;;;6.53;1.80;;;;;;;;;;5092979;28;20028;-65
2022/03/08 01:53:08;;;;;;;4.05;1.58;;;;;;;;;;5074794;28;20718;-65
2022/03/08 01:55:34;;;;;;;8.48;1.80;;;;;;;;;;5091983;28;21908;-66
2022/03/08 01:58:01;;;;;;;4.03;1.70;;;;;;;;;;5092538;28;20090;-66
2022/03/08 02:00:29;;;;;;;5.45;1.50;;;;;;;;;;5092716;28;20028;-65
2022/03/08 02:02:55;;;;;;;3.05;1.60;;;;;;;;;;5092243;28;20089;-65
2022/03/08 02:05:21;;;;;;;2.80;1.50;;;;;;;;;;5092710;28;20058;-66
2022/03/08 02:07:47;;;;;;;4.60;1.90;;;;;;;;;;5092658;28;20020;-66
2022/03/08 02:10:13;;;;;;;6.35;2.13;;;;;;;;;;5092468;28;20028;-66
2022/03/08 02:12:39;;;;;;;8.80;1.90;;;;;;;;;;5091524;28;20089;-66
2022/03/08 02:15:15;;;;;;;4.30;1.60;;;;;;;;;;5092369;28;20091;-65
2022/03/08 02:17:42;;;;;;;3.65;1.90;;;;;;;;;;5092521;28;20036;-66
2022/03/08 02:20:08;;;;;;;4.43;2.22;;;;;;;;;;5092427;28;20030;-66
2022/03/08 02:22:35;;;;;;;3.70;1.55;;;;;;;;;;5091694;28;20078;-66
2022/03/08 02:25:01;;;;;;;7.18;1.70;;;;;;;;;;5092508;28;20692;-65
2022/03/08 02:27:27;;;;;;;7.15;1.80;;;;;;;;;;5092290;28;20688;-66
2022/03/08 02:29:53;;;;;;;2.15;1.48;;;;;;;;;;5091505;28;20109;-66
2022/03/08 02:32:19;;;;;;;7.75;1.73;;;;;;;;;;5091848;28;20491;-66
2022/03/08 02:34:45;;;;;;;3.65;1.60;;;;;;;;;;5092002;28;20020;-66
2022/03/08 02:37:12;;;;;;;4.97;2.20;;;;;;;;;;5092241;28;20551;-65
2022/03/08 02:39:38;;;;;;;2.55;1.50;;;;;;;;;;5092023;28;20467;-65
2022/03/08 02:42:05;;;;;;;4.43;1.60;;;;;;;;;;5092018;28;20031;-66
2022/03/08 02:44:32;;;;;;;3.78;1.50;;;;;;;;;;5091657;28;20035;-65
2022/03/08 02:47:06;;;;;;;4.28;1.63;;;;;;;;;;5091639;28;20043;-65
2022/03/08 02:49:33;;;;;;;6.20;1.73;;;;;;;;;;5074653;28;20107;-65
2022/03/08 02:51:59;;;;;;;5.47;1.73;;;;;;;;;;5091607;28;20024;-66
2022/03/08 02:54:25;;;;;;;3.38;1.50;;;;;;;;;;5091981;28;20042;-65
2022/03/08 02:56:51;;;;;;;1.73;1.50;;;;;;;;;;5073317;28;20077;-65
2022/03/08 02:59:21;;;;;;;2.60;1.50;;;;;;;;;;5092037;28;20039;-65
2022/03/08 03:01:47;;;;;;;1.67;1.50;;;;;;;;;;5090812;28;20032;-66
2022/03/08 03:04:13;;;;;;;1.83;1.50;;;;;;;;;;5091448;28;20089;-65
2022/03/08 03:06:39;;;;;;;6.35;1.60;;;;;;;;;;5091684;28;20031;-65
2022/03/08 03:09:05;;;;;;;8.77;1.50;;;;;;;;;;5091521;28;20028;-64
2022/03/08 03:11:31;;;;;;;3.83;1.67;;;;;;;;;;5091236;28;20028;-64
2022/03/08 03:13:58;;;;;;;2.55;1.50;;;;;;;;;;5091922;28;20112;-65
2022/03/08 03:16:23;;;;;;;2.58;1.60;;;;;;;;;;5091842;28;20039;-65
2022/03/08 03:18:49;;;;;;;3.55;1.50;;;;;;;;;;5090972;28;20406;-65
2022/03/08 03:21:15;;;;;;;6.32;1.60;;;;;;;;;;5091321;28;20111;-65
2022/03/08 03:23:41;;;;;;;4.35;1.42;;;;;;;;;;5091197;28;20052;-65
2022/03/08 03:26:07;;;;;;;4.43;1.50;;;;;;;;;;5091466;28;20028;-65
2022/03/08 03:28:33;;;;;;;3.85;1.40;;;;;;;;;;5091474;28;20161;-65
2022/03/08 03:30:59;;;;;;;4.68;1.60;;;;;;;;;;5091264;28;20024;-65
2022/03/08 03:33:25;;;;;;;2.50;1.52;;;;;;;;;;5091457;28;20022;-65
2022/03/08 03:35:51;;;;;;;3.30;1.65;;;;;;;;;;5094892;28;20069;-65
2022/03/08 03:38:17;;;;;;;4.80;1.65;;;;;;;;;;5078294;28;20032;-66
2022/03/08 03:40:43;;;;;;;1.48;1.33;;;;;;;;;;5095496;28;20024;-67
2022/03/08 03:43:11;;;;;;;3.22;1.38;;;;;;;;;;5095274;28;20031;-66
2022/03/08 03:45:37;;;;;;;3.15;1.52;;;;;;;;;;5095204;28;20016;-66
2022/03/08 03:48:03;;;;;;;1.83;1.50;;;;;;;;;;5095224;28;20031;-65
2022/03/08 03:50:29;;;;;;;3.53;1.48;;;;;;;;;;5095205;28;20027;-65
2022/03/08 03:52:55;;;;;;;3.92;1.48;;;;;;;;;;5093858;28;20032;-65
2022/03/08 03:55:21;;;;;;;8.80;1.73;;;;;;;;;;5086724;28;20486;-65
2022/03/08 03:57:47;;;;;;;4.72;1.27;;;;;;;;;;5094873;28;20032;-65
2022/03/08 04:00:14;;;;;;;1.40;1.30;;;;;;;;;;5095269;28;20107;-65
2022/03/08 04:02:41;;;;;;;1.83;1.42;;;;;;;;;;5094999;28;20056;-65
2022/03/08 04:05:08;;;;;;;4.70;1.50;;;;;;;;;;5095320;28;20044;-64
2022/03/08 04:07:33;;;;;;;6.18;1.40;;;;;;;;;;5094088;28;20028;-65
2022/03/08 04:09:59;;;;;;;3.30;1.30;;;;;;;;;;5094901;28;20035;-65
2022/03/08 04:12:25;;;;;;;1.88;1.40;;;;;;;;;;5076443;28;20030;-66
2022/03/08 04:14:51;;;;;;;2.20;1.60;;;;;;;;;;5094822;28;20122;-65
2022/03/08 04:17:17;;;;;;;5.30;1.73;;;;;;;;;;5094822;28;20066;-66
2022/03/08 04:19:43;;;;;;;3.58;1.67;;;;;;;;;;5094717;28;20020;-65
2022/03/08 04:22:10;;;;;;;1.50;1.40;;;;;;;;;;5094468;28;20044;-65
2022/03/08 04:24:36;;;;;;;2.17;1.50;;;;;;;;;;5094257;28;20020;-65
2022/03/08 04:27:03;;;;;;;1.67;1.30;;;;;;;;;;5094506;28;20702;-64
2022/03/08 04:29:29;;;;;;;1.60;1.50;;;;;;;;;;5094617;28;20016;-65
2022/03/08 04:31:55;;;;;;;4.18;1.48;;;;;;;;;;5094354;28;20048;-65
2022/03/08 04:34:21;;;;;;;2.17;1.20;;;;;;;;;;5094313;28;20407;-65
2022/03/08 04:36:47;;;;;;;1.45;1.27;;;;;;;;;;5094326;28;20036;-63
2022/03/08 04:39:13;;;;;;;1.85;1.75;;;;;;;;;;5075896;28;20027;-65
2022/03/08 04:41:39;;;;;;;1.42;1.33;;;;;;;;;;5093990;28;20032;-65
2022/03/08 04:44:05;;;;;;;2.28;1.50;;;;;;;;;;5075080;28;20071;-64
2022/03/08 04:46:31;;;;;;;2.55;1.38;;;;;;;;;;5094340;28;20028;-65
2022/03/08 04:48:57;;;;;;;1.77;1.50;;;;;;;;;;5094265;28;20090;-66
2022/03/08 04:51:23;;;;;;;3.63;1.50;;;;;;;;;;5094070;28;20410;-65
2022/03/08 04:53:49;;;;;;;1.67;1.40;;;;;;;;;;5094193;28;20063;-65
2022/03/08 04:56:16;;;;;;;1.88;1.50;;;;;;;;;;5093839;28;20036;-65
2022/03/08 04:58:42;;;;;;;1.45;1.35;;;;;;;;;;5075561;28;20016;-64
2022/03/08 05:01:08;;;;;;;1.27;1.15;;;;;;;;;;5093125;28;20080;-65
2022/03/08 05:03:34;;;;;;;1.70;1.30;;;;;;;;;;5093630;28;20063;-64
2022/03/08 05:06:00;;;;;;;4.40;1.55;;;;;;;;;;5093866;28;20063;-65
2022/03/08 05:08:26;;;;;;;2.38;1.50;;;;;;;;;;5075611;28;20028;-66
2022/03/08 05:10:52;;;;;;;2.25;1.30;;;;;;;;;;5093515;28;20027;-66
2022/03/08 05:13:18;;;;;;;4.03;1.50;;;;;;;;;;5093645;28;20044;-66
2022/03/08 05:15:47;;;;;;;2.88;1.50;;;;;;;;;;5093148;28;20020;-65
2022/03/08 05:18:13;;;;;;;1.80;1.17;;;;;;;;;;5094050;28;20126;-65
2022/03/08 05:20:38;;;;;;;4.60;1.10;;;;;;;;;;5093832;28;20103;-66
2022/03/08 05:23:05;;;;;;;1.33;1.23;;;;;;;;;;5093225;28;20048;-65
2022/03/08 05:25:31;;;;;;;3.47;1.30;;;;;;;;;;5093428;28;20028;-64
2022/03/08 05:27:57;;;;;;;1.30;1.08;;;;;;;;;;5093770;28;20024;-64
2022/03/08 05:30:23;;;;;;;1.40;1.30;;;;;;;;;;5093529;28;20475;-66
2022/03/08 05:32:50;;;;;;;2.03;1.13;;;;;;;;;;5092965;28;20043;-65
2022/03/08 05:35:16;;;;;;;1.23;1.13;;;;;;;;;;5092432;28;20020;-65
2022/03/08 05:37:42;;;;;;;2.50;1.20;;;;;;;;;;5092773;28;20035;-65
2022/03/08 05:40:08;;;;;;;1.10;1.00;;;;;;;;;;5092982;28;20027;-65
2022/03/08 05:42:34;;;;;;;1.30;1.20;;;;;;;;;;5092902;28;20483;-65
2022/03/08 05:45:00;;;;;;;1.52;1.15;;;;;;;;;;5092721;28;20495;-65
2022/03/08 05:47:27;;;;;;;1.20;1.10;;;;;;;;;;5074844;28;20039;-63
2022/03/08 05:49:53;;;;;;;2.20;1.10;;;;;;;;;;5092317;28;20016;-65
2022/03/08 05:52:19;;;;;;;5.45;1.27;;;;;;;;;;5092852;28;20027;-66
2022/03/08 05:54:44;;;;;;;2.22;1.23;;;;;;;;;;5092867;28;20024;-65
2022/03/08 05:57:10;;;;;;;1.88;1.17;;;;;;;;;;5073654;28;20043;-65
2022/03/08 05:59:36;;;;;;;2.13;1.17;;;;;;;;;;5092838;28;20020;-65
2022/03/08 06:02:02;;;;;;;1.17;1.00;;;;;;;;;;5092629;28;20024;-65
2022/03/08 06:04:28;;;;;;;2.25;1.10;;;;;;;;;;5091982;28;20031;-64
2022/03/08 06:06:54;;;;;;;1.15;1.05;;;;;;;;;;5091946;28;20024;-64
2022/03/08 06:09:20;;;;;;;1.98;1.20;;;;;;;;;;5074899;28;20027;-63
2022/03/08 06:11:46;;;;;;;1.15;1.00;;;;;;;;;;5092137;28;20097;-64
2022/03/08 06:14:12;;;;;;;1.67;1.30;;;;;;;;;;5088986;28;20470;-64
2022/03/08 06:16:38;;;;;;;1.13;1.00;;;;;;;;;;5092071;28;20048;-64
2022/03/08 06:19:04;;;;;;;1.52;1.05;;;;;;;;;;5091156;28;20554;-65
2022/03/08 06:21:30;;;;;;;1.27;1.17;;;;;;;;;;5091278;28;20440;-64
2022/03/08 06:23:56;;;;;;;7.53;1.70;;;;;;;;;;5097579;28;20134;-73
2022/03/08 06:26:22;;;;;;;30.35;2.30;;;;;;;;;;5093393;28;20020;-64
2022/03/08 06:28:48;;;;;;;11.57;2.45;;;;;;;;;;5098807;28;20383;-66
2022/03/08 06:31:14;;;;;;;8.45;2.00;;;;;;;;;;5092022;28;20039;-65
2022/03/08 06:33:40;;;;;;;8.38;1.98;;;;;;;;;;5092410;28;20161;-67
2022/03/08 06:36:06;;;;;;;17.38;2.10;;;;;;;;;;5099145;28;20028;-65
2022/03/08 06:38:32;;;;;;;11.77;2.08;;;;;;;;;;5102151;28;20055;-65
2022/03/08 06:40:58;;;;;;;10.65;2.60;;;;;;;;;;5106028;28;20063;-70
2022/03/08 06:43:24;;;;;;;11.25;2.28;;;;;;;;;;5097272;28;20103;-65
2022/03/08 06:45:50;;;;;;;17.30;2.33;;;;;;;;;;5096863;28;20095;-63
2022/03/08 06:48:16;;;;;;;22.73;2.63;;;;;;;;;;5091744;28;20028;-64
2022/03/08 06:50:42;;;;;;;26.27;2.90;;;;;;;;;;5095321;28;20071;-65
2022/03/08 06:53:08;;;;;;;19.70;2.30;;;;;;;;;;5096987;28;20167;-66
2022/03/08 06:55:35;;;;;;;12.98;2.47;;;;;;;;;;5102521;28;20475;-66
2022/03/08 06:58:01;;;;;;;23.05;2.60;;;;;;;;;;5099384;28;20378;-67
2022/03/08 07:00:27;;;;;;;8.07;2.47;;;;;;;;;;5098811;28;20023;-66
2022/03/08 07:02:53;;;;;;;6.00;2.03;;;;;;;;;;5098010;28;20039;-65
2022/03/08 07:05:19;;;;;;;7.63;2.40;;;;;;;;;;5089306;28;20036;-66
2022/03/08 07:07:45;;;;;;;5.55;2.22;;;;;;;;;;5091333;28;20572;-68
2022/03/08 07:10:11;;;;;;;7.72;2.28;;;;;;;;;;5100417;28;20028;-67
2022/03/08 07:12:37;;;;;;;8.82;1.90;;;;;;;;;;5092436;28;20118;-74
2022/03/08 07:15:04;;;;;;;16.95;2.13;;;;;;;;;;5094451;28;20498;-75
2022/03/08 07:17:30;;;;;;;2.50;1.60;;;;;;;;;;5075217;28;20394;-72
2022/03/08 07:19:56;;;;;;;5.97;2.17;;;;;;;;;;5092982;28;20107;-67
2022/03/08 07:22:22;;;;;;;9.38;2.17;;;;;;;;;;5091604;28;20468;-66
2022/03/08 07:24:48;;;;;;;13.45;2.05;;;;;;;;;;5092412;28;20028;-67
2022/03/08 07:27:14;;;;;;;10.32;2.50;;;;;;;;;;5091921;28;20082;-68
2022/03/08 07:29:40;;;;;;;13.02;3.00;;;;;;;;;;5092211;28;20019;-67
2022/03/08 07:32:06;;;;;;;22.35;2.88;;;;;;;;;;5092650;28;20019;-66
2022/03/08 07:34:32;;;;;;;9.20;2.25;;;;;;;;;;5092566;28;20015;-68
2022/03/08 07:36:58;;;;;;;10.80;2.85;;;;;;;;;;5092337;28;20036;-67
2022/03/08 07:39:24;;;;;;;6.15;2.33;;;;;;;;;;5092316;28;20031;-68
2022/03/08 07:41:50;;;;;;;4.97;2.22;;;;;;;;;;5092391;28;20024;-67
2022/03/08 07:44:16;;;;;;;5.55;2.80;;;;;;;;;;5091701;28;20077;-68
2022/03/08 07:46:42;;;;;;;7.53;2.60;;;;;;;;;;5092038;28;20028;-67
2022/03/08 07:49:08;;;;;;;6.03;2.30;;;;;;;;;;5092105;28;20040;-67
2022/03/08 07:51:34;;;;;;;4.05;2.40;;;;;;;;;;5091886;28;20429;-67
2022/03/08 07:54:00;;;;;;;6.78;2.35;;;;;;;;;;5091995;28;20452;-67
2022/03/08 07:56:26;;;;;;;3.03;2.50;;;;;;;;;;5092054;28;20067;-67
2022/03/08 07:58:52;;;;;;;8.68;2.65;;;;;;;;;;5091615;28;20032;-67
2022/03/08 08:01:18;;;;;;;3.60;2.28;;;;;;;;;;5091032;28;20028;-67
2022/03/08 08:03:44;;;;;;;5.75;2.70;;;;;;;;;;5073491;28;20103;-68
2022/03/08 08:06:10;;;;;;;4.55;2.30;;;;;;;;;;5092149;28;20115;-68
2022/03/08 08:08:36;;;;;;;7.68;2.50;;;;;;;;;;5091602;28;20016;-67
2022/03/08 08:11:02;;;;;;;6.18;2.63;;;;;;;;;;5091661;28;20114;-67
2022/03/08 08:13:28;;;;;;;10.77;2.60;;;;;;;;;;5091599;28;20472;-67
2022/03/08 08:15:56;;;;;;;4.22;2.78;;;;;;;;;;5091711;28;20034;-67
2022/03/08 08:18:22;;;;;;;6.60;2.15;;;;;;;;;;5091365;28;20505;-67
2022/03/08 08:20:48;;;;;;;3.45;2.30;;;;;;;;;;5094587;28;20035;-68
2022/03/08 08:23:14;;;;;;;5.95;2.40;;;;;;;;;;5095252;28;20085;-67
2022/03/08 08:25:40;;;;;;;3.72;2.42;;;;;;;;;;5095785;28;20031;-67
2022/03/08 08:28:06;;;;;;;3.40;1.90;;;;;;;;;;5095461;28;20019;-67
2022/03/08 08:30:33;;;;;;;4.47;2.47;;;;;;;;;;5095585;28;20023;-67
2022/03/08 08:32:59;;;;;;;3.15;2.20;;;;;;;;;;5095128;28;20035;-67
2022/03/08 08:35:26;;;;;;;3.63;2.30;;;;;;;;;;5095213;28;20020;-66
2022/03/08 08:37:52;;;;;;;2.08;1.80;;;;;;;;;;5095253;28;20479;-66
2022/03/08 08:40:18;;;;;;;2.53;2.10;;;;;;;;;;5095124;28;20021;-67
2022/03/08 08:42:44;;;;;;;9.95;2.78;;;;;;;;;;5095010;28;20060;-68
2022/03/08 08:45:10;;;;;;;3.22;2.20;;;;;;;;;;5094993;28;20024;-68
2022/03/08 08:47:36;;;;;;;2.63;2.20;;;;;;;;;;5095194;28;20046;-67
2022/03/08 08:50:03;;;;;;;3.80;2.30;;;;;;;;;;5094875;28;20043;-67
2022/03/08 08:52:29;;;;;;;2.17;1.98;;;;;;;;;;5093626;28;20036;-67
2022/03/08 08:54:55;;;;;;;3.83;2.50;;;;;;;;;;5093102;28;20027;-67
2022/03/08 08:57:21;;;;;;;2.85;2.25;;;;;;;;;;5076139;28;20596;-66
2022/03/08 08:59:47;;;;;;;2.80;2.30;;;;;;;;;;5094685;28;20447;-66
2022/03/08 09:02:12;;;;;;;2.40;2.20;;;;;;;;;;5094230;28;20103;-67
2022/03/08 09:04:38;;;;;;;2.70;2.05;;;;;;;;;;5076473;28;20024;-67
2022/03/08 09:07:05;;;;;;;3.30;2.15;;;;;;;;;;5094664;28;20141;-66
2022/03/08 09:09:31;;;;;;;2.47;2.28;;;;;;;;;;5094027;28;20032;-68
2022/03/08 09:11:57;;;;;;;5.38;2.63;;;;;;;;;;5094457;28;20112;-68
2022/03/08 09:14:23;;;;;;;3.67;2.15;;;;;;;;;;5094541;28;20035;-67
2022/03/08 09:16:49;;;;;;;5.75;2.30;;;;;;;;;;5094390;28;20032;-67
2022/03/08 09:19:15;;;;;;;2.58;2.25;;;;;;;;;;5094880;28;20021;-67
2022/03/08 09:21:41;;;;;;;2.58;2.20;;;;;;;;;;5094385;28;20684;-67
2022/03/08 09:24:07;;;;;;;4.45;1.88;;;;;;;;;;5113013;28;20059;-67
2022/03/08 09:26:33;;;;;;;2.10;1.90;;;;;;;;;;5078875;28;20071;-66
2022/03/08 09:28:59;;;;;;;2.10;1.90;;;;;;;;;;5094284;28;20340;-68
2022/03/08 09:31:25;;;;;;;2.08;1.88;;;;;;;;;;5094020;28;20038;-67
2022/03/08 09:33:52;;;;;;;2.30;2.10;;;;;;;;;;5094164;28;20046;-68
2022/03/08 09:36:18;;;;;;;2.10;1.80;;;;;;;;;;5075630;28;20028;-67
2022/03/08 09:38:44;;;;;;;2.00;1.80;;;;;;;;;;5094248;28;20032;-68
2022/03/08 09:41:11;;;;;;;3.35;2.10;;;;;;;;;;5107363;28;20107;-67
2022/03/08 09:43:38;;;;;;;2.03;1.63;;;;;;;;;;5096055;28;20099;-67
2022/03/08 09:46:05;;;;;;;2.15;1.95;;;;;;;;;;5093646;28;20032;-67
2022/03/08 09:48:31;;;;;;;2.13;1.85;;;;;;;;;;5075442;28;20077;-68
2022/03/08 09:51:00;;;;;;;2.05;1.70;;;;;;;;;;5093396;28;20467;-68
2022/03/08 09:53:29;;;;;;;4.18;1.98;;;;;;;;;;5094017;28;20028;-67
2022/03/08 09:55:59;;;;;;;1.98;1.80;;;;;;;;;;5096461;28;20031;-68
2022/03/08 09:58:25;;;;;;;2.42;1.80;;;;;;;;;;5097421;28;20024;-66
2022/03/08 10:00:52;;;;;;;2.95;1.75;;;;;;;;;;5093206;28;20065;-67
2022/03/08 10:03:18;;;;;;;2.55;1.83;;;;;;;;;;5093653;28;20028;-67
2022/03/08 10:05:44;;;;;;;12.55;2.22;;;;;;;;;;5093586;28;20016;-67
2022/03/08 10:08:18;;;;;;;7.57;2.20;;;;;;;;;;5093624;28;20028;-68
2022/03/08 10:10:50;;;;;;;9.98;1.90;;;;;;;;;;5093260;28;20024;-68
2022/03/08 10:13:16;;;;;;;7.50;2.03;;;;;;;;;;5093133;28;20031;-67
2022/03/08 10:15:42;;;;;;;4.60;1.88;;;;;;;;;;5103840;28;20031;-67
2022/03/08 10:18:08;;;;;;;3.08;1.77;;;;;;;;;;5095506;28;20035;-67
2022/03/08 10:20:35;;;;;;;3.67;1.80;;;;;;;;;;5095339;28;20451;-68
2022/03/08 10:23:02;;;;;;;4.88;2.10;;;;;;;;;;5094697;28;20107;-68
2022/03/08 10:25:30;;;;;;;4.13;2.20;;;;;;;;;;5113550;28;20032;-67
2022/03/08 10:27:56;;;;;;;3.78;1.90;;;;;;;;;;5110414;28;20034;-68
2022/03/08 10:30:25;;;;;;;6.47;2.03;;;;;;;;;;5100585;28;20460;-67
2022/03/08 10:32:56;;;;;;;2.08;1.88;;;;;;;;;;5093114;28;20024;-67
2022/03/08 10:35:26;;;;;;;3.65;1.88;;;;;;;;;;5092803;28;20031;-68
2022/03/08 10:37:52;;;;;;;3.22;2.00;;;;;;;;;;5093007;28;20036;-68
2022/03/08 10:40:22;;;;;;;1.95;1.73;;;;;;;;;;5092958;28;20035;-68
2022/03/08 10:42:57;;;;;;;2.15;1.70;;;;;;;;;;5092424;28;20059;-68
2022/03/08 10:45:26;;;;;;;2.60;2.00;;;;;;;;;;5092258;28;20028;-67
2022/03/08 10:47:53;;;;;;;2.55;1.77;;;;;;;;;;5101394;28;20024;-67
2022/03/08 10:50:20;;;;;;;2.63;1.90;;;;;;;;;;5092628;28;20060;-67
2022/03/08 10:52:47;;;;;;;2.30;2.10;;;;;;;;;;5092545;28;20031;-67
2022/03/08 10:55:15;;;;;;;2.78;2.00;;;;;;;;;;5092434;28;20438;-68
2022/03/08 10:57:53;;;;;;;1.90;1.73;;;;;;;;;;5092096;28;20043;-68
2022/03/08 11:00:20;;;;;;;2.10;1.90;;;;;;;;;;5074595;28;20035;-67
2022/03/08 11:02:50;;;;;;;2.97;2.10;;;;;;;;;;5091953;28;20067;-67
2022/03/08 11:05:18;;;;;;;2.53;2.00;;;;;;;;;;5107523;28;20020;-67
2022/03/08 11:07:44;;;;;;;2.10;1.90;;;;;;;;;;5113176;28;20028;-67
2022/03/08 11:10:10;;;;;;;2.20;2.00;;;;;;;;;;5113128;28;20023;-66
2022/03/08 11:12:37;;;;;;;3.65;1.98;;;;;;;;;;5112838;28;20636;-67
2022/03/08 11:15:04;;;;;;;3.08;2.10;;;;;;;;;;5112853;28;20024;-67
2022/03/08 11:17:31;;;;;;;1.95;1.75;;;;;;;;;;5112709;28;20063;-69
2022/03/08 11:19:57;;;;;;;2.35;2.15;;;;;;;;;;5096419;28;20478;-68
2022/03/08 11:22:23;;;;;;;2.08;1.75;;;;;;;;;;5096414;28;20040;-68
2022/03/08 11:24:49;;;;;;;2.55;2.10;;;;;;;;;;5091222;28;20056;-68
2022/03/08 11:27:15;;;;;;;1.90;1.80;;;;;;;;;;5092201;28;20446;-68
2022/03/08 11:29:42;;;;;;;2.10;1.65;;;;;;;;;;5091575;28;20051;-68
2022/03/08 11:32:13;;;;;;;2.97;2.00;;;;;;;;;;5078172;28;20051;-68
2022/03/08 11:34:42;;;;;;;2.13;1.92;;;;;;;;;;5079076;28;20483;-69
2022/03/08 11:37:19;;;;;;;1.88;1.65;;;;;;;;;;5092403;28;20552;-68
2022/03/08 11:40:03;;;;;;;3.42;2.08;;;;;;;;;;5092420;28;20069;-69
2022/03/08 11:42:31;;;;;;;2.67;1.98;;;;;;;;;;5089260;28;20137;-68
2022/03/08 11:45:02;;;;;;;2.63;1.95;;;;;;;;;;5092264;28;20485;-67
2022/03/08 11:47:43;;;;;;;1.80;1.70;;;;;;;;;;5093336;28;20040;-69
2022/03/08 11:50:21;;;;;;;2.75;2.03;;;;;;;;;;5092319;28;20028;-68
2022/03/08 11:52:51;;;;;;;2.65;1.92;;;;;;;;;;5092322;28;20040;-68
2022/03/08 11:55:24;;;;;;;2.35;2.00;;;;;;;;;;5094835;28;20020;-68
2022/03/08 11:57:54;;;;;;;2.08;1.88;;;;;;;;;;5095742;28;20036;-68
2022/03/08 12:00:20;;;;;;;2.63;1.88;;;;;;;;;;5097631;28;20106;-68
2022/03/08 12:02:46;;;;;;;2.20;2.00;;;;;;;;;;5100136;28;20056;-68
2022/03/08 12:05:38;;;;;;;2.33;2.05;;;;;;;;;;5096011;28;20039;-68
2022/03/08 12:08:23;;;;;;;2.03;1.83;;;;;;;;;;5074136;28;20032;-68
2022/03/08 12:10:51;;;;;;;2.65;1.90;;;;;;;;;;5095781;28;20082;-68
2022/03/08 12:13:17;;;;;;;2.70;2.13;;;;;;;;;;5095809;28;20425;-68
2022/03/08 12:16:01;;;;;;;4.13;2.10;;;;;;;;;;5095638;28;20028;-68
2022/03/08 12:18:39;;;;;;;2.15;1.80;;;;;;;;;;5077604;28;20024;-68
2022/03/08 12:21:17;;;;;;;1.98;1.77;;;;;;;;;;5095888;28;20052;-68
2022/03/08 12:24:06;;;;;;;2.63;2.00;;;;;;;;;;5095414;28;20570;-67
2022/03/08 12:26:40;;;;;;;2.25;2.03;;;;;;;;;;5084947;28;20036;-70
2022/03/08 12:29:06;;;;;;;1.90;1.75;;;;;;;;;;5095434;28;20463;-69
2022/03/08 12:31:32;;;;;;;2.10;1.90;;;;;;;;;;5095369;28;20047;-68
2022/03/08 12:34:16;;;;;;;2.30;1.80;;;;;;;;;;5095328;28;20020;-68
2022/03/08 12:37:01;;;;;;;2.22;2.03;;;;;;;;;;5095045;28;20040;-67
2022/03/08 12:39:45;;;;;;;1.98;1.70;;;;;;;;;;5095323;28;20077;-67
2022/03/08 12:42:17;;;;;;;4.22;1.70;;;;;;;;;;5095077;28;20027;-66
2022/03/08 12:45:10;;;;;;;2.70;1.90;;;;;;;;;;5095563;28;20016;-66
2022/03/08 12:47:49;;;;;;;4.00;1.90;;;;;;;;;;5091443;28;20089;-67
2022/03/08 12:50:15;;;;;;;2.22;1.60;;;;;;;;;;5095427;28;20058;-69
2022/03/08 12:52:44;;;;;;;4.43;1.80;;;;;;;;;;5095191;28;20071;-68
2022/03/08 12:55:12;;;;;;;1.77;1.65;;;;;;;;;;5076935;28;20027;-67
2022/03/08 12:57:46;;;;;;;2.47;1.90;;;;;;;;;;5094350;28;20040;-67
2022/03/08 13:00:14;;;;;;;2.00;1.80;;;;;;;;;;5094978;28;20474;-67
2022/03/08 13:02:40;;;;;;;3.97;1.80;;;;;;;;;;5094566;28;20070;-67
2022/03/08 13:05:06;;;;;;;2.08;1.88;;;;;;;;;;5094293;28;20036;-68
2022/03/08 13:07:32;;;;;;;1.88;1.60;;;;;;;;;;5076465;28;20032;-65
2022/03/08 13:09:59;;;;;;;2.65;2.17;;;;;;;;;;5094543;28;20020;-65
2022/03/08 13:12:26;;;;;;;1.88;1.77;;;;;;;;;;5094395;28;20110;-64
2022/03/08 13:15:13;;;;;;;2.45;1.70;;;;;;;;;;5094533;28;20091;-64
2022/03/08 13:17:39;;;;;;;2.13;1.80;;;;;;;;;;5093978;28;20127;-64
2022/03/08 13:20:22;;;;;;;6.45;1.80;;;;;;;;;;5094216;28;20122;-64
2022/03/08 13:22:48;;;;;;;1.70;1.60;;;;;;;;;;5093467;28;20078;-64
2022/03/08 13:25:14;;;;;;;1.85;1.55;;;;;;;;;;5094204;28;20483;-65
2022/03/08 13:28:00;;;;;;;1.70;1.60;;;;;;;;;;5094152;28;20028;-64
2022/03/08 13:30:26;;;;;;;2.30;1.92;;;;;;;;;;5094184;28;20062;-64
2022/03/08 13:33:11;;;;;;;3.45;1.65;;;;;;;;;;5093995;28;20028;-65
2022/03/08 13:35:38;;;;;;;5.00;1.70;;;;;;;;;;5093991;28;20414;-64
2022/03/08 13:38:04;;;;;;;3.88;1.60;;;;;;;;;;5092834;28;20067;-64
2022/03/08 13:40:33;;;;;;;2.35;1.40;;;;;;;;;;5093807;28;20023;-65
2022/03/08 13:42:59;;;;;;;2.20;1.60;;;;;;;;;;5093943;28;20032;-65
2022/03/08 13:45:25;;;;;;;3.30;1.88;;;;;;;;;;5094104;28;20057;-65
2022/03/08 13:47:54;;;;;;;1.60;1.48;;;;;;;;;;5093859;28;20100;-66
2022/03/08 13:50:21;;;;;;;2.17;1.40;;;;;;;;;;5092741;28;20019;-65
2022/03/08 13:52:51;;;;;;;1.83;1.20;;;;;;;;;;5093836;28;20024;-65
2022/03/08 13:55:17;;;;;;;1.95;1.73;;;;;;;;;;5092809;28;20035;-66
2022/03/08 13:58:15;;;;;;;1.70;1.60;;;;;;;;;;5092911;28;20432;-65
2022/03/08 14:00:42;;;;;;;1.58;1.40;;;;;;;;;;5059508;28;20035;-65
2022/03/08 14:03:09;;;;;;;2.00;1.45;;;;;;;;;;5093700;28;20031;-65
2022/03/08 14:05:48;;;;;;;4.18;1.75;;;;;;;;;;5093704;28;20054;-65
2022/03/08 14:08:22;;;;;;;1.80;1.40;;;;;;;;;;5093720;28;20039;-65
2022/03/08 14:10:52;;;;;;;1.77;1.60;;;;;;;;;;5092560;28;20032;-64
2022/03/08 14:13:18;;;;;;;1.63;1.52;;;;;;;;;;5083156;28;20020;-65
2022/03/08 14:15:59;;;;;;;4.03;1.55;;;;;;;;;;5093036;28;20422;-65
2022/03/08 14:18:25;;;;;;;1.73;1.50;;;;;;;;;;5092609;28;20046;-64
2022/03/08 14:20:51;;;;;;;1.88;1.40;;;;;;;;;;5074679;28;20383;-66
2022/03/08 14:23:17;;;;;;;2.17;1.30;;;;;;;;;;5093277;28;20040;-65
2022/03/08 14:25:59;;;;;;;2.40;1.30;;;;;;;;;;5093348;28;20035;-66
2022/03/08 14:28:44;;;;;;;1.85;1.63;;;;;;;;;;5093262;28;20020;-65
2022/03/08 14:31:24;;;;;;;3.15;1.65;;;;;;;;;;5092813;28;20107;-66
2022/03/08 14:34:01;;;;;;;2.15;1.42;;;;;;;;;;5093211;28;20039;-66
2022/03/08 14:36:29;;;;;;;2.30;1.40;;;;;;;;;;5093185;28;20498;-70
2022/03/08 14:38:55;;;;;;;1.50;1.25;;;;;;;;;;5093211;28;20028;-70
2022/03/08 14:41:27;;;;;;;2.03;1.40;;;;;;;;;;5091665;28;20058;-70
2022/03/08 14:43:53;;;;;;;1.60;1.50;;;;;;;;;;5092013;28;20475;-70
2022/03/08 14:46:20;;;;;;;2.40;1.70;;;;;;;;;;5092816;28;20030;-69